createdAt,value
2023-02-24T00:01:40.416Z,100.75
2023-02-24T00:04:14.016Z,102.35
2023-02-24T00:06:44.096Z,98.05
2023-02-24T00:09:16.699Z,80.65
2023-02-24T00:11:56.937Z,98.40
2023-02-24T00:14:27.520Z,76.00
2023-02-24T00:16:56.226Z,67.15
2023-02-24T00:19:26.479Z,66.95
2023-02-24T00:21:54.808Z,61.75
2023-02-24T00:24:23.294Z,51.38
2023-02-24T00:27:00.813Z,51.83
2023-02-24T00:29:30.490Z,47.40
2023-02-24T00:32:01.284Z,51.90
2023-02-24T00:34:31.819Z,52.42
2023-02-24T00:37:00.504Z,51.15
2023-02-24T00:39:30.238Z,51.00
2023-02-24T00:41:59.123Z,51.22
2023-02-24T00:44:27.241Z,57.58
2023-02-24T00:46:55.602Z,63.35
2023-02-24T00:49:23.869Z,58.08
2023-02-24T00:51:52.171Z,57.70
2023-02-24T00:54:20.623Z,63.83
2023-02-24T00:56:49.477Z,56.17
2023-02-24T00:59:18.695Z,53.03
2023-02-24T01:01:47.894Z,54.80
2023-02-24T01:04:17.364Z,49.38
2023-02-24T01:06:48.844Z,47.08
2023-02-24T01:09:21.330Z,51.78
2023-02-24T01:11:50.641Z,47.47
2023-02-24T01:14:22.300Z,38.92
2023-02-24T01:16:50.863Z,34.35
2023-02-24T01:19:21.533Z,43.60
2023-02-24T01:21:50.132Z,42.65
2023-02-24T01:24:18.433Z,41.25
2023-02-24T01:26:46.806Z,37.58
2023-02-24T01:29:14.944Z,37.72
2023-02-24T01:31:43.531Z,36.55
2023-02-24T01:34:14.366Z,31.73
2023-02-24T01:36:43.351Z,30.13
2023-02-24T01:39:12.993Z,31.33
2023-02-24T01:41:46.530Z,31.95
2023-02-24T01:44:14.793Z,40.97
2023-02-24T01:46:48.137Z,38.42
2023-02-24T01:49:21.162Z,35.90
2023-02-24T01:52:03.041Z,34.58
2023-02-24T01:54:37.774Z,32.72
2023-02-24T01:57:07.174Z,28.70
2023-02-24T01:59:36.119Z,28.88
2023-02-24T02:02:07.403Z,30.98
2023-02-24T02:04:57.010Z,33.42
2023-02-24T02:07:29.568Z,31.35
2023-02-24T02:13:19.897Z,33.40
2023-02-24T02:16:22.796Z,33.17
2023-02-24T02:19:00.962Z,32.67
2023-02-24T02:21:47.386Z,35.97
2023-02-24T02:24:22.119Z,34.47
2023-02-24T02:26:53.477Z,30.00
2023-02-24T02:29:58.745Z,30.83
2023-02-24T02:32:49.657Z,26.92
2023-02-24T02:35:28.805Z,28.67
2023-02-24T02:38:15.454Z,29.58
2023-02-24T02:41:07.525Z,29.30
2023-02-24T02:43:51.089Z,31.63
2023-02-24T02:46:38.990Z,28.13
2023-02-24T02:49:34.877Z,29.70
2023-02-24T02:52:17.290Z,30.50
2023-02-24T02:54:56.046Z,28.90
2023-02-24T02:57:31.809Z,30.02
2023-02-24T03:00:11.432Z,29.50
2023-02-24T03:02:45.772Z,27.70
2023-02-24T03:05:18.940Z,31.02
2023-02-24T03:07:51.688Z,27.58
2023-02-24T03:10:31.032Z,30.15
2023-02-24T03:13:02.383Z,30.02
2023-02-24T03:15:33.656Z,32.75
2023-02-24T03:18:09.953Z,30.07
2023-02-24T03:20:46.124Z,36.85
2023-02-24T03:23:27.478Z,76.20
2023-02-24T03:26:06.543Z,76.53
2023-02-24T03:28:45.289Z,68.90
2023-02-24T03:31:28.904Z,58.72
2023-02-24T03:34:32.037Z,56.20
2023-02-24T03:37:00.388Z,50.90
2023-02-24T03:39:29.484Z,49.17
2023-02-24T03:42:19.019Z,44.20
2023-02-24T03:44:49.016Z,44.45
2023-02-24T03:47:18.971Z,50.67
2023-02-24T03:49:48.736Z,50.53
2023-02-24T03:52:41.162Z,45.47
2023-02-24T03:55:09.613Z,54.42
2023-02-24T03:58:15.133Z,59.88
2023-02-24T04:01:05.620Z,61.25
2023-02-24T04:03:50.702Z,56.28
2023-02-24T04:06:49.269Z,49.75
2023-02-24T04:09:32.824Z,46.58
2023-02-24T04:12:25.699Z,43.58
2023-02-24T04:15:01.687Z,45.45
2023-02-24T04:17:37.815Z,47.28
2023-02-24T04:20:10.251Z,42.85
2023-02-24T04:22:44.273Z,43.10
2023-02-24T04:27:45.027Z,42.40
2023-02-24T04:30:18.838Z,43.03
2023-02-24T04:32:47.704Z,45.72
2023-02-24T04:35:20.233Z,41.40
2023-02-24T04:37:54.066Z,38.70
2023-02-24T04:40:23.600Z,40.75
2023-02-24T04:42:53.957Z,40.80
2023-02-24T04:45:26.105Z,42.65
2023-02-24T04:50:26.287Z,35.13
2023-02-24T04:53:02.743Z,33.17
2023-02-24T04:55:32.383Z,33.78
2023-02-24T04:58:01.897Z,36.42
2023-02-24T05:00:30.789Z,32.55
2023-02-24T05:02:59.104Z,31.30
2023-02-24T05:05:27.170Z,28.85
2023-02-24T05:07:57.631Z,31.73
2023-02-24T05:10:25.781Z,35.60
2023-02-24T05:12:57.968Z,41.15
2023-02-24T05:15:27.285Z,43.20
2023-02-24T05:17:55.516Z,43.13
2023-02-24T05:20:23.839Z,38.75
2023-02-24T05:22:52.072Z,36.20
2023-02-24T05:25:21.432Z,35.33
2023-02-24T05:27:49.724Z,35.72
2023-02-24T05:30:17.958Z,34.75
2023-02-24T05:32:46.306Z,33.20
2023-02-24T05:35:14.599Z,31.73
2023-02-24T05:37:42.885Z,32.20
2023-02-24T05:40:11.946Z,30.30
2023-02-24T05:42:41.484Z,34.15
2023-02-24T05:45:10.953Z,31.10
2023-02-24T05:47:40.408Z,34.03
2023-02-24T05:50:09.004Z,32.53
2023-02-24T05:52:37.239Z,29.55
2023-02-24T05:55:06.476Z,36.95
2023-02-24T05:57:34.656Z,40.78
2023-02-24T06:00:04.506Z,43.35
2023-02-24T06:02:40.589Z,43.28
2023-02-24T06:05:09.336Z,41.08
2023-02-24T06:07:37.415Z,41.67
2023-02-24T06:10:06.205Z,39.00
2023-02-24T06:12:35.937Z,39.50
2023-02-24T06:15:04.401Z,46.63
2023-02-24T06:17:32.616Z,46.92
2023-02-24T06:20:00.846Z,44.00
2023-02-24T06:22:29.131Z,49.42
2023-02-24T06:24:57.537Z,47.30
2023-02-24T06:27:26.094Z,45.50
2023-02-24T06:29:55.364Z,45.60
2023-02-24T06:32:26.899Z,42.47
2023-02-24T06:34:55.475Z,40.08
2023-02-24T06:37:23.616Z,40.08
2023-02-24T06:39:51.891Z,38.03
2023-02-24T06:42:20.243Z,37.47
2023-02-24T06:44:48.605Z,38.05
2023-02-24T06:47:17.053Z,40.13
2023-02-24T06:49:45.196Z,42.78
2023-02-24T06:52:13.450Z,34.97
2023-02-24T06:54:41.824Z,38.30
2023-02-24T06:57:11.363Z,39.58
2023-02-24T06:59:39.716Z,36.17
2023-02-24T07:02:10.939Z,36.67
2023-02-24T07:04:39.262Z,39.20
2023-02-24T07:07:07.335Z,33.17
2023-02-24T07:09:35.634Z,31.95
2023-02-24T07:12:04.060Z,34.15
2023-02-24T07:14:32.402Z,33.72
2023-02-24T07:17:01.286Z,33.33
2023-02-24T07:19:31.346Z,34.22
2023-02-24T07:22:02.478Z,38.05
2023-02-24T07:24:33.834Z,35.90
2023-02-24T07:27:08.716Z,35.87
2023-02-24T07:29:37.714Z,36.15
2023-02-24T07:32:08.750Z,38.55
2023-02-24T07:34:37.622Z,38.60
2023-02-24T07:37:05.939Z,36.67
2023-02-24T07:39:34.807Z,35.40
2023-02-24T07:42:03.171Z,35.22
2023-02-24T07:44:40.360Z,36.42
2023-02-24T07:47:08.730Z,36.08
2023-02-24T07:49:37.871Z,31.80
2023-02-24T07:54:02.140Z,36.20
2023-02-24T07:56:32.051Z,37.38
2023-02-24T07:59:03.212Z,40.53
2023-02-24T08:01:35.797Z,46.53
2023-02-24T08:04:04.087Z,53.40
2023-02-24T08:06:34.674Z,43.28
2023-02-24T08:09:03.098Z,42.38
2023-02-24T08:11:32.388Z,46.33
2023-02-24T08:14:00.682Z,40.95
2023-02-24T08:16:31.880Z,39.95
2023-02-24T08:19:00.163Z,40.07
2023-02-24T08:21:28.506Z,44.42
2023-02-24T08:23:59.473Z,40.83
2023-02-24T08:26:27.891Z,39.40
2023-02-24T08:28:56.199Z,39.22
2023-02-24T08:31:24.893Z,40.40
2023-02-24T08:33:53.582Z,39.38
2023-02-24T08:36:21.814Z,42.25
2023-02-24T08:38:50.173Z,39.17
2023-02-24T08:41:21.675Z,41.22
2023-02-24T08:43:50.435Z,39.25
2023-02-24T08:46:23.917Z,36.10
2023-02-24T08:48:57.774Z,39.15
2023-02-24T08:51:32.731Z,37.38
2023-02-24T08:54:07.620Z,34.60
2023-02-24T08:56:35.951Z,38.10
2023-02-24T08:59:06.619Z,36.97
2023-02-24T09:01:38.433Z,38.53
2023-02-24T09:04:10.553Z,34.40
2023-02-24T09:09:17.845Z,33.15
2023-02-24T09:11:58.554Z,34.75
2023-02-24T09:14:31.950Z,35.28
2023-02-24T09:17:00.660Z,36.30
2023-02-24T09:19:37.791Z,33.65
2023-02-24T09:22:10.418Z,37.92
2023-02-24T09:24:44.665Z,35.50
2023-02-24T09:27:12.867Z,34.43
2023-02-24T09:29:41.155Z,37.28
2023-02-24T09:32:11.713Z,34.30
2023-02-24T09:34:42.427Z,31.00
2023-02-24T09:37:14.981Z,31.55
2023-02-24T09:39:43.185Z,35.85
2023-02-24T09:42:13.604Z,28.80
2023-02-24T09:44:44.926Z,31.52
2023-02-24T09:47:18.984Z,33.67
2023-02-24T09:49:54.892Z,30.50
2023-02-24T09:52:27.643Z,29.67
2023-02-24T09:54:56.067Z,29.77
2023-02-24T09:57:25.352Z,31.08
2023-02-24T09:59:57.015Z,34.53
2023-02-24T10:02:43.024Z,33.25
2023-02-24T10:05:39.497Z,38.55
2023-02-24T10:08:22.729Z,33.70
2023-02-24T10:10:51.090Z,41.95
2023-02-24T10:13:24.228Z,37.70
2023-02-24T10:15:56.986Z,32.05
2023-02-24T10:18:43.829Z,31.60
2023-02-24T10:21:24.349Z,31.10
2023-02-24T10:24:07.126Z,29.13
2023-02-24T10:27:01.176Z,31.77
2023-02-24T10:29:50.620Z,30.65
2023-02-24T10:32:29.285Z,33.22
2023-02-24T10:34:57.672Z,30.20
2023-02-24T10:37:28.955Z,31.35
2023-02-24T10:40:03.332Z,31.65
2023-02-24T10:42:36.078Z,33.30
2023-02-24T10:45:18.505Z,31.58
2023-02-24T10:47:58.030Z,31.50
2023-02-24T10:50:32.816Z,30.67
2023-02-24T10:53:12.019Z,28.55
2023-02-24T10:55:48.293Z,29.83
2023-02-24T10:58:18.385Z,31.90
2023-02-24T11:00:48.525Z,31.00
2023-02-24T11:03:27.938Z,31.40
2023-02-24T11:06:00.614Z,29.70
2023-02-24T11:08:28.925Z,29.45
2023-02-24T11:10:57.406Z,30.67
2023-02-24T11:13:27.040Z,31.98
2023-02-24T11:15:58.118Z,30.98
2023-02-24T11:18:28.645Z,30.75
2023-02-24T11:21:00.947Z,30.17
2023-02-24T11:23:40.950Z,30.35
2023-02-24T11:26:21.161Z,28.70
2023-02-24T11:28:55.585Z,26.92
2023-02-24T11:31:32.499Z,27.83
2023-02-24T11:34:03.859Z,30.25
2023-02-24T11:36:44.327Z,28.65
2023-02-24T11:39:31.599Z,31.02
2023-02-24T11:42:05.636Z,29.02
2023-02-24T11:44:44.641Z,28.85
2023-02-24T11:47:17.099Z,28.55
2023-02-24T11:50:15.224Z,31.17
2023-02-24T11:52:46.351Z,29.85
2023-02-24T11:55:37.307Z,29.27
2023-02-24T11:58:41.226Z,31.55
2023-02-24T12:01:12.599Z,30.45
2023-02-24T12:03:54.874Z,32.65
2023-02-24T12:06:58.490Z,31.52
2023-02-24T12:09:34.877Z,32.97
2023-02-24T12:12:11.772Z,31.35
2023-02-24T12:14:54.709Z,27.55
2023-02-24T12:17:31.859Z,28.00
2023-02-24T12:20:39.593Z,30.58
2023-02-24T12:23:20.118Z,27.80
2023-02-24T12:26:47.149Z,32.30
2023-02-24T12:29:42.479Z,29.05
2023-02-24T12:32:35.520Z,27.90
2023-02-24T12:35:12.974Z,27.70
2023-02-24T12:37:55.886Z,30.75
2023-02-24T12:41:10.305Z,35.97
2023-02-24T12:44:22.944Z,29.95
2023-02-24T12:47:16.318Z,25.40
2023-02-24T12:50:14.552Z,28.55
2023-02-24T12:53:07.402Z,32.15
2023-02-24T12:55:58.092Z,26.25
2023-02-24T12:58:37.664Z,28.65
2023-02-24T13:01:12.278Z,27.00
2023-02-24T13:04:08.703Z,30.75
2023-02-24T13:06:55.693Z,27.67
2023-02-24T13:09:53.744Z,29.60
2023-02-24T13:12:34.078Z,30.15
2023-02-24T13:15:20.908Z,31.98
2023-02-24T13:17:50.684Z,28.83
2023-02-24T13:20:34.465Z,29.88
2023-02-24T13:23:04.599Z,33.97
2023-02-24T13:25:38.148Z,32.90
2023-02-24T13:28:24.018Z,31.40
2023-02-24T13:31:19.369Z,27.40
2023-02-24T13:33:47.822Z,29.65
2023-02-24T13:36:18.229Z,32.90
2023-02-24T13:38:49.125Z,33.72
2023-02-24T13:41:29.213Z,30.23
2023-02-24T13:44:22.380Z,30.77
2023-02-24T13:47:15.429Z,31.55
2023-02-24T13:50:17.577Z,35.33
2023-02-24T13:52:55.053Z,33.97
2023-02-24T13:55:36.897Z,33.78
2023-02-24T13:58:30.058Z,31.25
2023-02-24T14:01:10.493Z,33.22
2023-02-24T14:03:41.875Z,31.30
2023-02-24T14:06:25.816Z,32.55
2023-02-24T14:09:00.254Z,37.28
2023-02-24T14:11:33.319Z,31.77
2023-02-24T14:14:01.591Z,36.10
2023-02-24T14:16:39.511Z,29.17
2023-02-24T14:19:14.222Z,29.17
2023-02-24T14:21:53.025Z,31.95
2023-02-24T14:24:22.582Z,34.20
2023-02-24T14:26:57.002Z,34.40
2023-02-24T14:29:30.460Z,30.08
2023-02-24T14:31:59.488Z,34.83
2023-02-24T14:34:31.115Z,42.45
2023-02-24T14:37:01.682Z,30.08
2023-02-24T14:39:32.469Z,29.45
2023-02-24T14:42:09.732Z,30.20
2023-02-24T14:44:44.375Z,26.88
2023-02-24T14:47:15.378Z,28.10
2023-02-24T14:49:53.649Z,30.63
2023-02-24T14:52:28.071Z,28.88
2023-02-24T14:55:07.542Z,30.48
2023-02-24T14:57:51.989Z,32.53
2023-02-24T15:00:30.343Z,32.35
2023-02-24T15:03:07.722Z,31.30
2023-02-24T15:05:41.553Z,30.55
2023-02-24T15:08:24.228Z,30.98
2023-02-24T15:10:52.588Z,28.33
2023-02-24T15:13:38.452Z,35.25
2023-02-24T15:16:14.975Z,35.85
2023-02-24T15:18:43.447Z,30.95
2023-02-24T15:21:22.584Z,28.63
2023-02-24T15:23:58.496Z,29.27
2023-02-24T15:26:29.065Z,28.33
2023-02-24T15:29:14.767Z,30.20
2023-02-24T15:31:48.917Z,31.05
2023-02-24T15:34:23.031Z,27.58
2023-02-24T15:36:56.416Z,25.80
2023-02-24T15:39:28.393Z,29.50
2023-02-24T15:42:17.759Z,28.52
2023-02-24T15:44:54.504Z,28.55
2023-02-24T15:47:24.846Z,29.88
2023-02-24T15:49:53.310Z,33.33
2023-02-24T15:52:27.911Z,26.95
2023-02-24T15:54:57.109Z,29.38
2023-02-24T15:57:26.016Z,32.42
2023-02-24T15:59:54.590Z,31.45
2023-02-24T16:02:24.264Z,32.67
2023-02-24T16:04:53.413Z,32.85
2023-02-24T16:07:35.006Z,27.85
2023-02-24T16:10:04.774Z,32.80
2023-02-24T16:12:47.182Z,31.50
2023-02-24T16:15:21.182Z,29.27
2023-02-24T16:17:50.300Z,31.27
2023-02-24T16:20:23.058Z,28.60
2023-02-24T16:22:51.287Z,32.42
2023-02-24T16:25:19.420Z,30.27
2023-02-24T16:27:47.826Z,27.27
2023-02-24T16:30:22.612Z,26.95
2023-02-24T16:32:51.534Z,30.90
2023-02-24T16:35:21.774Z,25.90
2023-02-24T16:37:50.034Z,33.47
2023-02-24T16:40:26.435Z,29.63
2023-02-24T16:42:54.985Z,27.58
2023-02-24T16:45:27.988Z,31.30
2023-02-24T16:48:00.541Z,29.17
2023-02-24T16:50:43.420Z,34.20
2023-02-24T16:53:16.944Z,31.23
2023-02-24T16:55:46.328Z,31.98
2023-02-24T16:58:15.010Z,30.40
2023-02-24T17:00:46.449Z,30.05
2023-02-24T17:03:20.717Z,29.52
2023-02-24T17:05:49.590Z,33.78
2023-02-24T17:08:18.202Z,28.90
2023-02-24T17:10:47.580Z,27.17
2023-02-24T17:13:18.910Z,25.42
2023-02-24T17:15:47.705Z,26.98
2023-02-24T17:18:15.896Z,28.25
2023-02-24T17:20:44.212Z,25.38
2023-02-24T17:23:12.931Z,30.73
2023-02-24T17:25:41.093Z,30.90
2023-02-24T17:28:10.590Z,32.83
2023-02-24T17:30:39.384Z,28.48
2023-02-24T17:33:08.242Z,36.65
2023-02-24T17:35:36.543Z,42.33
2023-02-24T17:38:04.891Z,34.65
2023-02-24T17:40:33.077Z,32.53
2023-02-24T17:43:01.561Z,33.08
2023-02-24T17:45:30.036Z,35.50
2023-02-24T17:47:58.245Z,38.47
2023-02-24T17:50:26.817Z,39.45
2023-02-24T17:52:55.220Z,40.42
2023-02-24T17:55:23.608Z,38.90
2023-02-24T17:57:51.706Z,34.50
2023-02-24T18:00:20.279Z,27.65
2023-02-24T18:02:48.877Z,30.88
2023-02-24T18:05:17.238Z,41.22
2023-02-24T18:07:45.645Z,39.28
2023-02-24T18:10:14.243Z,39.03
2023-02-24T18:12:42.419Z,33.30
2023-02-24T18:15:11.424Z,30.30
2023-02-24T18:17:39.780Z,32.38
2023-02-24T18:20:09.451Z,33.50
2023-02-24T18:22:37.695Z,37.28
2023-02-24T18:25:06.371Z,31.30
2023-02-24T18:27:34.929Z,33.03
2023-02-24T18:30:03.405Z,35.30
2023-02-24T18:32:31.842Z,31.55
2023-02-24T18:35:00.204Z,33.53
2023-02-24T18:37:28.506Z,37.33
2023-02-24T18:39:56.616Z,40.75
2023-02-24T18:42:24.965Z,39.70
2023-02-24T18:44:53.120Z,42.00
2023-02-24T18:47:21.248Z,48.38
2023-02-24T18:49:49.517Z,48.85
2023-02-24T18:52:17.794Z,35.00
2023-02-24T18:54:46.206Z,29.88
2023-02-24T18:57:14.577Z,42.90
2023-02-24T18:59:42.730Z,49.50
2023-02-24T19:02:11.551Z,39.80
2023-02-24T19:04:42.994Z,53.03
2023-02-24T19:07:11.192Z,39.78
2023-02-24T19:09:41.613Z,34.03
2023-02-24T19:12:10.250Z,35.70
2023-02-24T19:14:38.383Z,31.92
2023-02-24T19:17:06.663Z,40.83
2023-02-24T19:19:35.056Z,39.97
2023-02-24T19:22:03.396Z,32.63
2023-02-24T19:24:31.648Z,37.60
2023-02-24T19:26:59.971Z,33.78
2023-02-24T19:29:28.383Z,33.83
2023-02-24T19:31:56.754Z,50.78
2023-02-24T19:34:25.201Z,40.58
2023-02-24T19:36:53.309Z,54.95
2023-02-24T19:39:21.689Z,54.05
2023-02-24T19:41:50.093Z,52.47
2023-02-24T19:44:18.351Z,45.58
2023-02-24T19:46:46.621Z,39.10
2023-02-24T19:49:14.870Z,41.50
2023-02-24T19:51:43.224Z,28.98
2023-02-24T19:54:12.972Z,43.83
2023-02-24T19:56:41.216Z,55.58
2023-02-24T19:59:11.133Z,51.03
2023-02-24T20:01:39.736Z,55.10
2023-02-24T20:04:08.135Z,49.63
2023-02-24T20:06:39.238Z,46.10
2023-02-24T20:09:09.611Z,59.00
2023-02-24T20:11:40.645Z,52.83
2023-02-24T20:14:10.355Z,36.80
2023-02-24T20:16:42.914Z,28.98
2023-02-24T20:19:13.355Z,41.33
2023-02-24T20:21:42.010Z,48.58
2023-02-24T20:24:13.963Z,54.35
2023-02-24T20:29:11.763Z,26.17
2023-02-24T20:31:41.308Z,23.42
2023-02-24T20:34:09.854Z,19.88
2023-02-24T20:36:38.390Z,20.45
2023-02-24T20:39:06.917Z,21.50
2023-02-24T20:41:35.782Z,22.27
2023-02-24T20:44:03.950Z,23.40
2023-02-24T20:46:33.220Z,21.85
2023-02-24T20:49:09.945Z,19.27
2023-02-24T20:51:39.211Z,20.00
2023-02-24T20:54:09.662Z,18.90
2023-02-24T20:56:39.642Z,23.25
2023-02-24T20:59:14.418Z,21.92
2023-02-24T21:01:44.524Z,32.15
2023-02-24T21:06:43.097Z,20.58
2023-02-24T21:11:25.798Z,17.92
2023-02-24T21:13:54.514Z,20.35
2023-02-24T21:16:23.475Z,18.90
2023-02-24T21:18:52.316Z,17.38
2023-02-24T21:21:21.356Z,17.88
2023-02-24T21:23:50.193Z,18.70
2023-02-24T21:26:18.871Z,16.92
2023-02-24T21:28:47.328Z,18.88
2023-02-24T21:31:18.903Z,17.35
2023-02-24T21:33:53.796Z,15.40
2023-02-24T21:36:22.746Z,16.13
2023-02-24T21:38:51.100Z,18.58
2023-02-24T21:41:19.667Z,16.70
2023-02-24T21:43:48.291Z,14.38
2023-02-24T21:46:16.608Z,15.90
2023-02-24T21:48:45.026Z,16.45
2023-02-24T21:51:14.160Z,15.88
2023-02-24T21:53:43.330Z,16.88
2023-02-24T21:56:17.649Z,17.75
2023-02-24T21:58:48.768Z,13.52
2023-02-24T22:01:20.592Z,14.05
2023-02-24T22:03:49.326Z,13.02
2023-02-24T22:06:17.635Z,13.52
2023-02-24T22:08:45.962Z,16.30
2023-02-24T22:11:17.600Z,16.95
2023-02-24T22:13:47.082Z,17.23
2023-02-24T22:16:23.383Z,21.10
2023-02-24T22:18:53.870Z,18.00
2023-02-24T22:21:25.791Z,18.48
2023-02-24T22:23:58.064Z,15.63
2023-02-24T22:26:27.853Z,16.48
2023-02-24T22:28:56.675Z,14.85
2023-02-24T22:31:28.075Z,16.23
2023-02-24T22:33:56.912Z,15.18
2023-02-24T22:36:27.881Z,14.73
2023-02-24T22:38:57.845Z,14.93
2023-02-24T22:41:28.651Z,12.65
2023-02-24T22:43:57.298Z,12.90
2023-02-24T22:46:37.426Z,12.55
2023-02-24T22:49:06.792Z,13.20
2023-02-24T22:51:35.067Z,14.45
2023-02-24T22:54:04.089Z,14.00
2023-02-24T22:56:32.804Z,20.50
2023-02-24T22:59:01.788Z,18.02
2023-02-24T23:01:32.782Z,16.00
2023-02-24T23:04:02.500Z,23.42
2023-02-24T23:06:31.624Z,13.98
2023-02-24T23:09:02.348Z,15.48
2023-02-24T23:11:33.945Z,12.82
2023-02-24T23:14:05.362Z,14.52
2023-02-24T23:16:35.560Z,15.02
2023-02-24T23:19:10.517Z,17.95
2023-02-24T23:21:41.704Z,19.38
2023-02-24T23:24:11.627Z,16.38
2023-02-24T23:26:45.919Z,15.68
2023-02-24T23:29:16.684Z,16.92
2023-02-24T23:31:45.647Z,17.27
2023-02-24T23:34:14.202Z,16.92
2023-02-24T23:36:46.816Z,28.27
2023-02-24T23:39:18.476Z,26.05
2023-02-24T23:41:46.833Z,21.08
2023-02-24T23:44:15.076Z,18.08
2023-02-24T23:46:43.620Z,15.88
2023-02-24T23:49:11.922Z,18.02
2023-02-24T23:51:48.141Z,16.65
2023-02-24T23:54:18.533Z,18.42
2023-02-24T23:56:47.018Z,16.65
2023-02-24T23:59:15.849Z,17.40
